sensor_id;sensor_type;location;lat;lon;timestamp;P1;durP1;ratioP1;P2;durP2;ratioP2
70071;SDS011;57434;42.794;23.302;2023-04-24T00:00:51;8.40;;;3.90;;
70071;SDS011;57434;42.794;23.302;2023-04-24T00:01:53;8.70;;;4.13;;
70071;SDS011;57434;42.794;23.302;2023-04-24T00:02:55;8.00;;;4.00;;
70071;SDS011;57434;42.794;23.302;2023-04-24T00:03:57;9.67;;;4.27;;
70071;SDS011;57434;42.794;23.302;2023-04-24T00:04:59;8.07;;;4.13;;
70071;SDS011;57434;42.794;23.302;2023-04-24T00:06:01;8.52;;;4.00;;
70071;SDS011;57434;42.794;23.302;2023-04-24T00:07:03;8.50;;;4.22;;
70071;SDS011;57434;42.794;23.302;2023-04-24T00:08:05;8.82;;;4.20;;
70071;SDS011;57434;42.794;23.302;2023-04-24T00:09:08;8.27;;;3.90;;
70071;SDS011;57434;42.794;23.302;2023-04-24T00:10:13;8.02;;;4.30;;
70071;SDS011;57434;42.794;23.302;2023-04-24T00:11:14;8.90;;;4.13;;
70071;SDS011;57434;42.794;23.302;2023-04-24T00:12:16;10.50;;;4.53;;
70071;SDS011;57434;42.794;23.302;2023-04-24T00:13:18;7.90;;;4.10;;
70071;SDS011;57434;42.794;23.302;2023-04-24T00:14:20;7.20;;;4.07;;
70071;SDS011;57434;42.794;23.302;2023-04-24T00:15:22;7.82;;;3.95;;
70071;SDS011;57434;42.794;23.302;2023-04-24T00:16:25;9.68;;;4.53;;
70071;SDS011;57434;42.794;23.302;2023-04-24T00:17:26;10.57;;;4.55;;
70071;SDS011;57434;42.794;23.302;2023-04-24T00:18:28;9.82;;;4.07;;
70071;SDS011;57434;42.794;23.302;2023-04-24T00:19:30;8.98;;;4.30;;
70071;SDS011;57434;42.794;23.302;2023-04-24T00:20:32;7.70;;;4.03;;
70071;SDS011;57434;42.794;23.302;2023-04-24T00:21:35;8.52;;;4.53;;
70071;SDS011;57434;42.794;23.302;2023-04-24T00:22:37;8.27;;;4.13;;
70071;SDS011;57434;42.794;23.302;2023-04-24T00:23:38;8.82;;;3.97;;
70071;SDS011;57434;42.794;23.302;2023-04-24T00:24:40;8.73;;;4.30;;
70071;SDS011;57434;42.794;23.302;2023-04-24T00:25:42;8.40;;;4.35;;
70071;SDS011;57434;42.794;23.302;2023-04-24T00:26:44;10.50;;;4.65;;
70071;SDS011;57434;42.794;23.302;2023-04-24T00:27:46;8.45;;;4.07;;
70071;SDS011;57434;42.794;23.302;2023-04-24T00:28:48;7.78;;;4.13;;
70071;SDS011;57434;42.794;23.302;2023-04-24T00:29:50;8.90;;;4.20;;
70071;SDS011;57434;42.794;23.302;2023-04-24T00:30:52;8.50;;;4.50;;
70071;SDS011;57434;42.794;23.302;2023-04-24T00:31:54;8.27;;;4.38;;
70071;SDS011;57434;42.794;23.302;2023-04-24T00:32:55;8.75;;;4.05;;
70071;SDS011;57434;42.794;23.302;2023-04-24T00:33:58;10.85;;;4.28;;
70071;SDS011;57434;42.794;23.302;2023-04-24T00:35:00;7.33;;;3.90;;
70071;SDS011;57434;42.794;23.302;2023-04-24T00:36:02;7.20;;;4.13;;
70071;SDS011;57434;42.794;23.302;2023-04-24T00:37:03;8.10;;;3.45;;
70071;SDS011;57434;42.794;23.302;2023-04-24T00:38:05;8.95;;;4.50;;
70071;SDS011;57434;42.794;23.302;2023-04-24T00:39:07;7.90;;;4.18;;
70071;SDS011;57434;42.794;23.302;2023-04-24T00:40:09;8.27;;;3.88;;
70071;SDS011;57434;42.794;23.302;2023-04-24T00:41:11;7.88;;;3.53;;
70071;SDS011;57434;42.794;23.302;2023-04-24T00:42:13;7.82;;;4.20;;
70071;SDS011;57434;42.794;23.302;2023-04-24T00:43:16;10.70;;;4.20;;
70071;SDS011;57434;42.794;23.302;2023-04-24T00:44:18;9.50;;;3.83;;
70071;SDS011;57434;42.794;23.302;2023-04-24T00:45:20;9.40;;;4.40;;
70071;SDS011;57434;42.794;23.302;2023-04-24T00:46:22;9.35;;;4.53;;
70071;SDS011;57434;42.794;23.302;2023-04-24T00:47:25;9.13;;;4.20;;
70071;SDS011;57434;42.794;23.302;2023-04-24T00:48:27;9.48;;;3.70;;
70071;SDS011;57434;42.794;23.302;2023-04-24T00:49:29;8.50;;;4.28;;
70071;SDS011;57434;42.794;23.302;2023-04-24T00:50:31;8.93;;;4.22;;
70071;SDS011;57434;42.794;23.302;2023-04-24T00:51:33;11.23;;;4.40;;
70071;SDS011;57434;42.794;23.302;2023-04-24T00:52:34;8.68;;;4.05;;
70071;SDS011;57434;42.794;23.302;2023-04-24T00:53:37;7.95;;;4.05;;
70071;SDS011;57434;42.794;23.302;2023-04-24T00:54:39;8.52;;;4.40;;
70071;SDS011;57434;42.794;23.302;2023-04-24T00:55:40;7.63;;;4.07;;
70071;SDS011;57434;42.794;23.302;2023-04-24T00:56:43;7.93;;;3.67;;
70071;SDS011;57434;42.794;23.302;2023-04-24T00:57:45;10.43;;;4.25;;
70071;SDS011;57434;42.794;23.302;2023-04-24T00:58:48;8.50;;;4.63;;
70071;SDS011;57434;42.794;23.302;2023-04-24T00:59:51;10.38;;;4.18;;
70071;SDS011;57434;42.794;23.302;2023-04-24T01:00:53;10.68;;;4.57;;
70071;SDS011;57434;42.794;23.302;2023-04-24T01:01:56;8.52;;;3.85;;
70071;SDS011;57434;42.794;23.302;2023-04-24T01:02:59;12.05;;;3.75;;
70071;SDS011;57434;42.794;23.302;2023-04-24T01:05:23;9.18;;;4.30;;
70071;SDS011;57434;42.794;23.302;2023-04-24T01:06:27;10.20;;;4.10;;
70071;SDS011;57434;42.794;23.302;2023-04-24T01:07:29;10.10;;;3.92;;
70071;SDS011;57434;42.794;23.302;2023-04-24T01:08:32;10.18;;;3.78;;
70071;SDS011;57434;42.794;23.302;2023-04-24T01:09:39;6.80;;;3.90;;
70071;SDS011;57434;42.794;23.302;2023-04-24T01:10:42;9.95;;;4.68;;
70071;SDS011;57434;42.794;23.302;2023-04-24T01:11:45;9.43;;;4.28;;
70071;SDS011;57434;42.794;23.302;2023-04-24T01:12:47;8.50;;;3.92;;
70071;SDS011;57434;42.794;23.302;2023-04-24T01:13:49;10.88;;;4.20;;
70071;SDS011;57434;42.794;23.302;2023-04-24T01:14:51;7.63;;;4.00;;
70071;SDS011;57434;42.794;23.302;2023-04-24T01:15:52;7.82;;;3.58;;
70071;SDS011;57434;42.794;23.302;2023-04-24T01:16:54;7.97;;;4.07;;
70071;SDS011;57434;42.794;23.302;2023-04-24T01:17:56;9.30;;;5.35;;
70071;SDS011;57434;42.794;23.302;2023-04-24T01:18:58;11.40;;;4.40;;
70071;SDS011;57434;42.794;23.302;2023-04-24T01:20:00;12.00;;;3.85;;
70071;SDS011;57434;42.794;23.302;2023-04-24T01:21:03;8.27;;;3.80;;
70071;SDS011;57434;42.794;23.302;2023-04-24T01:22:23;8.63;;;3.80;;
70071;SDS011;57434;42.794;23.302;2023-04-24T01:23:26;9.07;;;4.00;;
70071;SDS011;57434;42.794;23.302;2023-04-24T01:24:28;7.07;;;3.75;;
70071;SDS011;57434;42.794;23.302;2023-04-24T01:25:30;9.65;;;3.90;;
70071;SDS011;57434;42.794;23.302;2023-04-24T01:26:32;10.02;;;3.60;;
70071;SDS011;57434;42.794;23.302;2023-04-24T01:27:34;7.93;;;3.87;;
70071;SDS011;57434;42.794;23.302;2023-04-24T01:28:36;9.68;;;4.07;;
70071;SDS011;57434;42.794;23.302;2023-04-24T01:29:38;8.35;;;4.35;;
70071;SDS011;57434;42.794;23.302;2023-04-24T01:30:41;7.68;;;3.92;;
70071;SDS011;57434;42.794;23.302;2023-04-24T01:31:43;8.23;;;4.13;;
70071;SDS011;57434;42.794;23.302;2023-04-24T01:32:45;7.63;;;3.83;;
70071;SDS011;57434;42.794;23.302;2023-04-24T01:33:47;7.35;;;3.53;;
70071;SDS011;57434;42.794;23.302;2023-04-24T01:34:50;8.75;;;4.30;;
70071;SDS011;57434;42.794;23.302;2023-04-24T01:35:52;7.90;;;3.60;;
70071;SDS011;57434;42.794;23.302;2023-04-24T01:36:55;8.57;;;3.70;;
70071;SDS011;57434;42.794;23.302;2023-04-24T01:37:57;8.40;;;3.63;;
70071;SDS011;57434;42.794;23.302;2023-04-24T01:38:59;8.38;;;3.95;;
70071;SDS011;57434;42.794;23.302;2023-04-24T01:40:01;8.02;;;4.10;;
70071;SDS011;57434;42.794;23.302;2023-04-24T01:41:02;8.95;;;4.32;;
70071;SDS011;57434;42.794;23.302;2023-04-24T01:42:05;8.15;;;3.67;;
70071;SDS011;57434;42.794;23.302;2023-04-24T01:43:07;7.70;;;4.00;;
70071;SDS011;57434;42.794;23.302;2023-04-24T01:44:09;9.52;;;4.35;;
70071;SDS011;57434;42.794;23.302;2023-04-24T01:45:11;9.10;;;4.18;;
70071;SDS011;57434;42.794;23.302;2023-04-24T01:46:13;10.55;;;4.40;;
70071;SDS011;57434;42.794;23.302;2023-04-24T01:47:15;7.35;;;3.75;;
70071;SDS011;57434;42.794;23.302;2023-04-24T01:48:17;10.67;;;4.47;;
70071;SDS011;57434;42.794;23.302;2023-04-24T01:49:19;10.52;;;4.30;;
70071;SDS011;57434;42.794;23.302;2023-04-24T01:50:21;11.35;;;4.95;;
70071;SDS011;57434;42.794;23.302;2023-04-24T01:51:23;10.88;;;4.75;;
70071;SDS011;57434;42.794;23.302;2023-04-24T01:52:25;10.02;;;4.20;;
70071;SDS011;57434;42.794;23.302;2023-04-24T01:53:27;10.50;;;4.20;;
70071;SDS011;57434;42.794;23.302;2023-04-24T01:54:28;8.27;;;4.57;;
70071;SDS011;57434;42.794;23.302;2023-04-24T01:55:30;10.35;;;4.50;;
70071;SDS011;57434;42.794;23.302;2023-04-24T01:56:33;9.30;;;4.55;;
70071;SDS011;57434;42.794;23.302;2023-04-24T01:57:35;10.07;;;5.00;;
70071;SDS011;57434;42.794;23.302;2023-04-24T01:58:37;10.40;;;5.17;;
70071;SDS011;57434;42.794;23.302;2023-04-24T01:59:40;9.13;;;4.70;;
70071;SDS011;57434;42.794;23.302;2023-04-24T02:00:42;8.38;;;4.63;;
70071;SDS011;57434;42.794;23.302;2023-04-24T02:01:44;9.77;;;4.32;;
70071;SDS011;57434;42.794;23.302;2023-04-24T02:02:45;10.15;;;4.45;;
70071;SDS011;57434;42.794;23.302;2023-04-24T02:03:49;9.38;;;4.70;;
70071;SDS011;57434;42.794;23.302;2023-04-24T02:04:50;8.43;;;4.75;;
70071;SDS011;57434;42.794;23.302;2023-04-24T02:05:52;11.43;;;4.75;;
70071;SDS011;57434;42.794;23.302;2023-04-24T02:06:54;9.18;;;4.72;;
70071;SDS011;57434;42.794;23.302;2023-04-24T02:07:56;8.57;;;4.53;;
70071;SDS011;57434;42.794;23.302;2023-04-24T02:08:58;10.63;;;4.47;;
70071;SDS011;57434;42.794;23.302;2023-04-24T02:10:01;10.60;;;4.88;;
70071;SDS011;57434;42.794;23.302;2023-04-24T02:11:03;10.10;;;4.55;;
70071;SDS011;57434;42.794;23.302;2023-04-24T02:12:05;17.65;;;6.35;;
70071;SDS011;57434;42.794;23.302;2023-04-24T02:13:06;15.38;;;6.00;;
70071;SDS011;57434;42.794;23.302;2023-04-24T02:14:08;12.15;;;5.78;;
70071;SDS011;57434;42.794;23.302;2023-04-24T02:15:10;9.10;;;4.38;;
70071;SDS011;57434;42.794;23.302;2023-04-24T02:16:12;10.80;;;4.35;;
70071;SDS011;57434;42.794;23.302;2023-04-24T02:17:14;9.85;;;4.55;;
70071;SDS011;57434;42.794;23.302;2023-04-24T02:18:16;9.50;;;4.32;;
70071;SDS011;57434;42.794;23.302;2023-04-24T02:19:18;9.03;;;4.53;;
70071;SDS011;57434;42.794;23.302;2023-04-24T02:20:20;10.05;;;4.80;;
70071;SDS011;57434;42.794;23.302;2023-04-24T02:21:22;8.90;;;4.43;;
70071;SDS011;57434;42.794;23.302;2023-04-24T02:22:23;9.07;;;4.32;;
70071;SDS011;57434;42.794;23.302;2023-04-24T02:23:25;9.32;;;4.32;;
70071;SDS011;57434;42.794;23.302;2023-04-24T02:24:27;8.85;;;4.68;;
70071;SDS011;57434;42.794;23.302;2023-04-24T02:25:29;8.93;;;4.57;;
70071;SDS011;57434;42.794;23.302;2023-04-24T02:26:31;8.80;;;4.45;;
70071;SDS011;57434;42.794;23.302;2023-04-24T02:27:33;11.23;;;5.10;;
70071;SDS011;57434;42.794;23.302;2023-04-24T02:28:34;12.98;;;4.47;;
70071;SDS011;57434;42.794;23.302;2023-04-24T02:29:36;9.30;;;4.90;;
70071;SDS011;57434;42.794;23.302;2023-04-24T02:30:38;8.45;;;4.53;;
70071;SDS011;57434;42.794;23.302;2023-04-24T02:31:40;8.82;;;4.32;;
70071;SDS011;57434;42.794;23.302;2023-04-24T02:32:42;12.73;;;4.65;;
70071;SDS011;57434;42.794;23.302;2023-04-24T02:33:43;9.00;;;4.68;;
70071;SDS011;57434;42.794;23.302;2023-04-24T02:34:45;9.23;;;4.90;;
70071;SDS011;57434;42.794;23.302;2023-04-24T02:35:47;11.30;;;6.03;;
70071;SDS011;57434;42.794;23.302;2023-04-24T02:36:49;8.50;;;4.63;;
70071;SDS011;57434;42.794;23.302;2023-04-24T02:37:51;9.88;;;4.68;;
70071;SDS011;57434;42.794;23.302;2023-04-24T02:38:53;12.68;;;5.45;;
70071;SDS011;57434;42.794;23.302;2023-04-24T02:39:55;11.50;;;4.90;;
70071;SDS011;57434;42.794;23.302;2023-04-24T02:40:57;12.00;;;5.22;;
70071;SDS011;57434;42.794;23.302;2023-04-24T02:41:59;8.57;;;4.55;;
70071;SDS011;57434;42.794;23.302;2023-04-24T02:43:00;9.60;;;5.05;;
70071;SDS011;57434;42.794;23.302;2023-04-24T02:44:02;12.48;;;4.93;;
70071;SDS011;57434;42.794;23.302;2023-04-24T02:45:04;11.25;;;5.00;;
70071;SDS011;57434;42.794;23.302;2023-04-24T02:46:06;9.05;;;4.88;;
70071;SDS011;57434;42.794;23.302;2023-04-24T02:47:08;8.98;;;4.38;;
70071;SDS011;57434;42.794;23.302;2023-04-24T02:48:10;9.98;;;4.60;;
70071;SDS011;57434;42.794;23.302;2023-04-24T02:49:12;9.43;;;4.75;;
70071;SDS011;57434;42.794;23.302;2023-04-24T02:50:14;9.10;;;5.00;;
70071;SDS011;57434;42.794;23.302;2023-04-24T02:51:15;11.10;;;5.13;;
70071;SDS011;57434;42.794;23.302;2023-04-24T02:52:17;9.60;;;5.18;;
70071;SDS011;57434;42.794;23.302;2023-04-24T02:53:19;11.43;;;4.93;;
70071;SDS011;57434;42.794;23.302;2023-04-24T02:54:21;10.18;;;5.85;;
70071;SDS011;57434;42.794;23.302;2023-04-24T02:55:23;11.68;;;4.72;;
70071;SDS011;57434;42.794;23.302;2023-04-24T02:56:25;9.20;;;5.35;;
70071;SDS011;57434;42.794;23.302;2023-04-24T02:57:27;12.23;;;5.13;;
70071;SDS011;57434;42.794;23.302;2023-04-24T02:58:28;10.02;;;4.70;;
70071;SDS011;57434;42.794;23.302;2023-04-24T02:59:30;8.85;;;4.50;;
70071;SDS011;57434;42.794;23.302;2023-04-24T03:00:32;9.30;;;4.43;;
70071;SDS011;57434;42.794;23.302;2023-04-24T03:01:34;9.90;;;4.75;;
70071;SDS011;57434;42.794;23.302;2023-04-24T03:02:36;8.95;;;5.07;;
70071;SDS011;57434;42.794;23.302;2023-04-24T03:03:38;9.70;;;4.13;;
70071;SDS011;57434;42.794;23.302;2023-04-24T03:04:40;9.93;;;5.20;;
70071;SDS011;57434;42.794;23.302;2023-04-24T03:05:42;10.25;;;4.63;;
70071;SDS011;57434;42.794;23.302;2023-04-24T03:06:44;10.88;;;4.97;;
70071;SDS011;57434;42.794;23.302;2023-04-24T03:07:46;10.13;;;4.93;;
70071;SDS011;57434;42.794;23.302;2023-04-24T03:08:48;10.93;;;5.10;;
70071;SDS011;57434;42.794;23.302;2023-04-24T03:09:50;10.10;;;4.88;;
70071;SDS011;57434;42.794;23.302;2023-04-24T03:10:52;9.47;;;4.57;;
70071;SDS011;57434;42.794;23.302;2023-04-24T03:11:54;7.82;;;4.43;;
70071;SDS011;57434;42.794;23.302;2023-04-24T03:12:55;9.77;;;5.55;;
70071;SDS011;57434;42.794;23.302;2023-04-24T03:13:57;8.88;;;5.10;;
70071;SDS011;57434;42.794;23.302;2023-04-24T03:14:59;9.40;;;4.38;;
70071;SDS011;57434;42.794;23.302;2023-04-24T03:16:01;9.85;;;4.63;;
70071;SDS011;57434;42.794;23.302;2023-04-24T03:17:03;10.18;;;5.32;;
70071;SDS011;57434;42.794;23.302;2023-04-24T03:18:05;10.45;;;4.90;;
70071;SDS011;57434;42.794;23.302;2023-04-24T03:19:07;9.32;;;4.95;;
70071;SDS011;57434;42.794;23.302;2023-04-24T03:20:09;14.30;;;4.95;;
70071;SDS011;57434;42.794;23.302;2023-04-24T03:21:11;10.63;;;4.67;;
70071;SDS011;57434;42.794;23.302;2023-04-24T03:22:13;11.43;;;5.20;;
70071;SDS011;57434;42.794;23.302;2023-04-24T03:23:15;9.73;;;5.47;;
70071;SDS011;57434;42.794;23.302;2023-04-24T03:24:17;9.18;;;4.72;;
70071;SDS011;57434;42.794;23.302;2023-04-24T03:25:19;10.52;;;5.72;;
70071;SDS011;57434;42.794;23.302;2023-04-24T03:26:21;9.73;;;4.75;;
70071;SDS011;57434;42.794;23.302;2023-04-24T03:27:22;15.40;;;7.80;;
70071;SDS011;57434;42.794;23.302;2023-04-24T03:28:24;17.70;;;8.82;;
70071;SDS011;57434;42.794;23.302;2023-04-24T03:29:26;14.43;;;6.65;;
70071;SDS011;57434;42.794;23.302;2023-04-24T03:30:30;11.48;;;5.97;;
70071;SDS011;57434;42.794;23.302;2023-04-24T03:31:32;12.07;;;6.40;;
70071;SDS011;57434;42.794;23.302;2023-04-24T03:32:34;10.70;;;6.18;;
70071;SDS011;57434;42.794;23.302;2023-04-24T03:33:36;10.55;;;5.78;;
70071;SDS011;57434;42.794;23.302;2023-04-24T03:34:38;11.63;;;5.43;;
70071;SDS011;57434;42.794;23.302;2023-04-24T03:35:40;9.55;;;5.57;;
70071;SDS011;57434;42.794;23.302;2023-04-24T03:36:41;11.38;;;5.65;;
70071;SDS011;57434;42.794;23.302;2023-04-24T03:37:43;9.85;;;5.68;;
70071;SDS011;57434;42.794;23.302;2023-04-24T03:38:45;10.95;;;4.97;;
70071;SDS011;57434;42.794;23.302;2023-04-24T03:39:47;9.48;;;5.00;;
70071;SDS011;57434;42.794;23.302;2023-04-24T03:40:49;11.68;;;5.95;;
70071;SDS011;57434;42.794;23.302;2023-04-24T03:41:51;14.73;;;6.07;;
70071;SDS011;57434;42.794;23.302;2023-04-24T03:42:52;10.70;;;5.72;;
70071;SDS011;57434;42.794;23.302;2023-04-24T03:43:54;11.75;;;6.75;;
70071;SDS011;57434;42.794;23.302;2023-04-24T03:44:56;14.43;;;6.15;;
70071;SDS011;57434;42.794;23.302;2023-04-24T03:45:58;21.95;;;9.50;;
70071;SDS011;57434;42.794;23.302;2023-04-24T03:47:00;18.48;;;7.95;;
70071;SDS011;57434;42.794;23.302;2023-04-24T03:48:03;15.30;;;7.30;;
70071;SDS011;57434;42.794;23.302;2023-04-24T03:49:04;17.60;;;8.30;;
70071;SDS011;57434;42.794;23.302;2023-04-24T03:50:06;13.43;;;6.47;;
70071;SDS011;57434;42.794;23.302;2023-04-24T03:51:09;13.60;;;5.60;;
70071;SDS011;57434;42.794;23.302;2023-04-24T03:52:10;12.90;;;5.97;;
70071;SDS011;57434;42.794;23.302;2023-04-24T03:53:12;14.05;;;6.20;;
70071;SDS011;57434;42.794;23.302;2023-04-24T03:54:14;11.13;;;6.47;;
70071;SDS011;57434;42.794;23.302;2023-04-24T03:55:16;19.85;;;7.45;;
70071;SDS011;57434;42.794;23.302;2023-04-24T03:56:18;14.65;;;7.30;;
70071;SDS011;57434;42.794;23.302;2023-04-24T03:57:20;13.35;;;6.25;;
70071;SDS011;57434;42.794;23.302;2023-04-24T03:58:22;15.18;;;6.63;;
70071;SDS011;57434;42.794;23.302;2023-04-24T03:59:23;15.07;;;6.45;;
70071;SDS011;57434;42.794;23.302;2023-04-24T04:00:25;14.65;;;6.57;;
70071;SDS011;57434;42.794;23.302;2023-04-24T04:01:27;15.68;;;7.00;;
70071;SDS011;57434;42.794;23.302;2023-04-24T04:02:29;12.53;;;6.50;;
70071;SDS011;57434;42.794;23.302;2023-04-24T04:03:31;12.50;;;6.22;;
70071;SDS011;57434;42.794;23.302;2023-04-24T04:04:33;10.18;;;5.88;;
70071;SDS011;57434;42.794;23.302;2023-04-24T04:05:35;11.55;;;6.47;;
70071;SDS011;57434;42.794;23.302;2023-04-24T04:06:37;12.38;;;6.53;;
70071;SDS011;57434;42.794;23.302;2023-04-24T04:07:39;13.80;;;6.32;;
70071;SDS011;57434;42.794;23.302;2023-04-24T04:08:41;13.05;;;6.05;;
70071;SDS011;57434;42.794;23.302;2023-04-24T04:09:42;10.13;;;5.82;;
70071;SDS011;57434;42.794;23.302;2023-04-24T04:10:44;10.65;;;6.32;;
70071;SDS011;57434;42.794;23.302;2023-04-24T04:11:46;10.52;;;6.15;;
70071;SDS011;57434;42.794;23.302;2023-04-24T04:12:48;14.67;;;9.03;;
70071;SDS011;57434;42.794;23.302;2023-04-24T04:13:50;15.48;;;8.55;;
70071;SDS011;57434;42.794;23.302;2023-04-24T04:14:52;15.20;;;8.88;;
70071;SDS011;57434;42.794;23.302;2023-04-24T04:15:54;14.32;;;8.13;;
70071;SDS011;57434;42.794;23.302;2023-04-24T04:16:56;13.35;;;7.57;;
70071;SDS011;57434;42.794;23.302;2023-04-24T04:17:58;14.52;;;8.10;;
70071;SDS011;57434;42.794;23.302;2023-04-24T04:18:59;15.98;;;8.98;;
70071;SDS011;57434;42.794;23.302;2023-04-24T04:20:01;32.30;;;9.32;;
70071;SDS011;57434;42.794;23.302;2023-04-24T04:21:03;17.90;;;8.15;;
70071;SDS011;57434;42.794;23.302;2023-04-24T04:22:05;17.42;;;7.90;;
70071;SDS011;57434;42.794;23.302;2023-04-24T04:23:07;14.57;;;8.23;;
70071;SDS011;57434;42.794;23.302;2023-04-24T04:24:08;19.02;;;9.98;;
70071;SDS011;57434;42.794;23.302;2023-04-24T04:25:10;17.98;;;9.93;;
70071;SDS011;57434;42.794;23.302;2023-04-24T04:26:12;19.02;;;11.35;;
70071;SDS011;57434;42.794;23.302;2023-04-24T04:27:14;19.63;;;9.35;;
70071;SDS011;57434;42.794;23.302;2023-04-24T04:28:16;15.57;;;7.55;;
70071;SDS011;57434;42.794;23.302;2023-04-24T04:29:18;14.00;;;8.02;;
70071;SDS011;57434;42.794;23.302;2023-04-24T04:30:19;12.30;;;8.15;;
70071;SDS011;57434;42.794;23.302;2023-04-24T04:31:22;14.32;;;7.53;;
70071;SDS011;57434;42.794;23.302;2023-04-24T04:32:24;15.15;;;7.65;;
70071;SDS011;57434;42.794;23.302;2023-04-24T04:33:26;18.53;;;10.03;;
70071;SDS011;57434;42.794;23.302;2023-04-24T04:34:28;18.50;;;9.48;;
70071;SDS011;57434;42.794;23.302;2023-04-24T04:35:29;19.17;;;8.93;;
70071;SDS011;57434;42.794;23.302;2023-04-24T04:36:31;15.38;;;6.82;;
70071;SDS011;57434;42.794;23.302;2023-04-24T04:37:33;13.82;;;7.07;;
70071;SDS011;57434;42.794;23.302;2023-04-24T04:38:35;15.00;;;6.72;;
70071;SDS011;57434;42.794;23.302;2023-04-24T04:39:37;14.43;;;7.93;;
70071;SDS011;57434;42.794;23.302;2023-04-24T04:40:38;12.35;;;7.40;;
70071;SDS011;57434;42.794;23.302;2023-04-24T04:41:40;15.48;;;8.98;;
70071;SDS011;57434;42.794;23.302;2023-04-24T04:42:42;21.33;;;10.43;;
70071;SDS011;57434;42.794;23.302;2023-04-24T04:43:44;14.43;;;7.80;;
70071;SDS011;57434;42.794;23.302;2023-04-24T04:44:46;10.63;;;6.57;;
70071;SDS011;57434;42.794;23.302;2023-04-24T04:45:48;14.27;;;7.10;;
70071;SDS011;57434;42.794;23.302;2023-04-24T04:46:49;11.15;;;6.75;;
70071;SDS011;57434;42.794;23.302;2023-04-24T04:47:51;15.02;;;6.85;;
70071;SDS011;57434;42.794;23.302;2023-04-24T04:48:53;12.50;;;7.05;;
70071;SDS011;57434;42.794;23.302;2023-04-24T04:49:55;14.30;;;7.35;;
70071;SDS011;57434;42.794;23.302;2023-04-24T04:50:57;12.02;;;6.78;;
70071;SDS011;57434;42.794;23.302;2023-04-24T04:51:59;12.27;;;6.72;;
70071;SDS011;57434;42.794;23.302;2023-04-24T04:53:01;15.70;;;7.70;;
70071;SDS011;57434;42.794;23.302;2023-04-24T04:54:03;16.00;;;7.67;;
70071;SDS011;57434;42.794;23.302;2023-04-24T04:55:05;22.75;;;8.57;;
70071;SDS011;57434;42.794;23.302;2023-04-24T04:56:07;15.13;;;7.72;;
70071;SDS011;57434;42.794;23.302;2023-04-24T04:57:10;14.82;;;7.07;;
70071;SDS011;57434;42.794;23.302;2023-04-24T04:58:12;16.95;;;7.38;;
70071;SDS011;57434;42.794;23.302;2023-04-24T04:59:13;11.75;;;6.47;;
70071;SDS011;57434;42.794;23.302;2023-04-24T05:00:15;12.30;;;6.88;;
70071;SDS011;57434;42.794;23.302;2023-04-24T05:01:17;13.38;;;8.07;;
70071;SDS011;57434;42.794;23.302;2023-04-24T05:02:19;11.98;;;6.95;;
70071;SDS011;57434;42.794;23.302;2023-04-24T05:03:21;11.95;;;6.85;;
70071;SDS011;57434;42.794;23.302;2023-04-24T05:04:23;11.47;;;6.93;;
70071;SDS011;57434;42.794;23.302;2023-04-24T05:05:25;13.85;;;7.05;;
70071;SDS011;57434;42.794;23.302;2023-04-24T05:06:27;14.10;;;7.00;;
70071;SDS011;57434;42.794;23.302;2023-04-24T05:07:28;11.38;;;6.90;;
70071;SDS011;57434;42.794;23.302;2023-04-24T05:08:30;14.85;;;7.15;;
70071;SDS011;57434;42.794;23.302;2023-04-24T05:09:32;12.50;;;6.70;;
70071;SDS011;57434;42.794;23.302;2023-04-24T05:10:34;14.73;;;6.57;;
70071;SDS011;57434;42.794;23.302;2023-04-24T05:11:36;11.80;;;6.57;;
70071;SDS011;57434;42.794;23.302;2023-04-24T05:12:38;18.33;;;8.88;;
70071;SDS011;57434;42.794;23.302;2023-04-24T05:13:40;13.60;;;7.22;;
70071;SDS011;57434;42.794;23.302;2023-04-24T05:14:42;13.97;;;6.97;;
70071;SDS011;57434;42.794;23.302;2023-04-24T05:15:43;12.95;;;7.20;;
70071;SDS011;57434;42.794;23.302;2023-04-24T05:16:45;16.88;;;8.05;;
70071;SDS011;57434;42.794;23.302;2023-04-24T05:17:47;13.27;;;7.35;;
70071;SDS011;57434;42.794;23.302;2023-04-24T05:18:49;15.90;;;8.40;;
70071;SDS011;57434;42.794;23.302;2023-04-24T05:19:51;15.32;;;7.47;;
70071;SDS011;57434;42.794;23.302;2023-04-24T05:20:53;11.57;;;6.70;;
70071;SDS011;57434;42.794;23.302;2023-04-24T05:21:54;13.27;;;7.38;;
70071;SDS011;57434;42.794;23.302;2023-04-24T05:22:56;15.65;;;7.07;;
70071;SDS011;57434;42.794;23.302;2023-04-24T05:23:58;12.85;;;6.63;;
70071;SDS011;57434;42.794;23.302;2023-04-24T05:25:00;12.53;;;6.27;;
70071;SDS011;57434;42.794;23.302;2023-04-24T05:26:01;12.68;;;6.43;;
70071;SDS011;57434;42.794;23.302;2023-04-24T05:27:05;10.95;;;6.47;;
70071;SDS011;57434;42.794;23.302;2023-04-24T05:28:07;15.45;;;8.05;;
70071;SDS011;57434;42.794;23.302;2023-04-24T05:29:09;15.27;;;8.32;;
70071;SDS011;57434;42.794;23.302;2023-04-24T05:30:10;13.55;;;6.65;;
70071;SDS011;57434;42.794;23.302;2023-04-24T05:31:12;14.85;;;7.90;;
70071;SDS011;57434;42.794;23.302;2023-04-24T05:32:14;12.55;;;7.45;;
70071;SDS011;57434;42.794;23.302;2023-04-24T05:33:16;18.05;;;9.00;;
70071;SDS011;57434;42.794;23.302;2023-04-24T05:34:18;16.75;;;10.38;;
70071;SDS011;57434;42.794;23.302;2023-04-24T05:35:20;15.40;;;8.37;;
70071;SDS011;57434;42.794;23.302;2023-04-24T05:36:22;17.95;;;8.43;;
70071;SDS011;57434;42.794;23.302;2023-04-24T05:37:23;17.75;;;8.50;;
70071;SDS011;57434;42.794;23.302;2023-04-24T05:38:25;17.02;;;7.63;;
70071;SDS011;57434;42.794;23.302;2023-04-24T05:39:27;17.15;;;10.00;;
70071;SDS011;57434;42.794;23.302;2023-04-24T05:40:29;17.17;;;8.35;;
70071;SDS011;57434;42.794;23.302;2023-04-24T05:41:31;14.82;;;7.18;;
70071;SDS011;57434;42.794;23.302;2023-04-24T05:42:33;20.98;;;9.70;;
70071;SDS011;57434;42.794;23.302;2023-04-24T05:43:34;25.60;;;12.05;;
70071;SDS011;57434;42.794;23.302;2023-04-24T05:44:36;14.30;;;8.05;;
70071;SDS011;57434;42.794;23.302;2023-04-24T05:45:38;19.40;;;8.40;;
70071;SDS011;57434;42.794;23.302;2023-04-24T05:46:40;15.88;;;8.00;;
70071;SDS011;57434;42.794;23.302;2023-04-24T05:47:43;14.82;;;7.40;;
70071;SDS011;57434;42.794;23.302;2023-04-24T05:48:45;14.45;;;6.95;;
70071;SDS011;57434;42.794;23.302;2023-04-24T05:49:47;13.45;;;6.35;;
70071;SDS011;57434;42.794;23.302;2023-04-24T05:50:49;15.65;;;7.53;;
70071;SDS011;57434;42.794;23.302;2023-04-24T05:51:51;12.20;;;7.30;;
70071;SDS011;57434;42.794;23.302;2023-04-24T05:52:53;14.68;;;7.40;;
70071;SDS011;57434;42.794;23.302;2023-04-24T05:53:55;15.85;;;7.10;;
70071;SDS011;57434;42.794;23.302;2023-04-24T05:54:57;15.35;;;7.15;;
70071;SDS011;57434;42.794;23.302;2023-04-24T05:55:58;13.67;;;7.60;;
70071;SDS011;57434;42.794;23.302;2023-04-24T05:57:00;15.95;;;7.40;;
70071;SDS011;57434;42.794;23.302;2023-04-24T05:58:02;14.05;;;7.18;;
70071;SDS011;57434;42.794;23.302;2023-04-24T05:59:04;12.77;;;7.15;;
70071;SDS011;57434;42.794;23.302;2023-04-24T06:00:06;13.57;;;7.18;;
70071;SDS011;57434;42.794;23.302;2023-04-24T06:01:08;14.20;;;7.55;;
70071;SDS011;57434;42.794;23.302;2023-04-24T06:02:10;15.68;;;7.20;;
70071;SDS011;57434;42.794;23.302;2023-04-24T06:03:12;14.70;;;7.55;;
70071;SDS011;57434;42.794;23.302;2023-04-24T06:04:14;15.57;;;8.02;;
70071;SDS011;57434;42.794;23.302;2023-04-24T06:05:16;14.93;;;7.35;;
70071;SDS011;57434;42.794;23.302;2023-04-24T06:06:18;11.47;;;6.80;;